createdAt,value
2018-12-19T00:02:05.225Z,10.53
2018-12-19T00:04:33.588Z,10.43
2018-12-19T00:07:01.984Z,12.53
2018-12-19T00:09:30.391Z,12.67
2018-12-19T00:11:59.005Z,9.97
2018-12-19T00:14:27.390Z,10.17
2018-12-19T00:16:55.780Z,11.60
2018-12-19T00:19:24.173Z,11.67
2018-12-19T00:21:52.539Z,10.77
2018-12-19T00:24:20.982Z,11.57
2018-12-19T00:26:49.352Z,7.80
2018-12-19T00:29:17.693Z,9.97
2018-12-19T00:31:46.064Z,11.40
2018-12-19T00:34:14.409Z,8.73
2018-12-19T00:36:42.791Z,10.80
2018-12-19T00:39:11.167Z,10.17
2018-12-19T00:41:39.546Z,9.93
2018-12-19T00:44:07.909Z,8.77
2018-12-19T00:46:36.271Z,7.87
2018-12-19T00:49:04.667Z,10.13
2018-12-19T00:51:33.039Z,7.73
2018-12-19T00:54:01.436Z,7.73
2018-12-19T00:56:29.809Z,7.53
2018-12-19T00:58:58.327Z,8.07
2018-12-19T01:01:26.744Z,7.97
2018-12-19T01:03:55.089Z,8.43
2018-12-19T01:06:23.466Z,9.60
2018-12-19T01:08:51.912Z,6.77
2018-12-19T01:11:20.273Z,9.37
2018-12-19T01:13:48.758Z,8.27
2018-12-19T01:16:17.148Z,7.07
2018-12-19T01:18:45.534Z,9.00
2018-12-19T01:21:13.890Z,7.77
2018-12-19T01:23:42.259Z,6.30
2018-12-19T01:26:10.624Z,7.67
2018-12-19T01:28:39.009Z,7.77
2018-12-19T01:31:07.411Z,6.70
2018-12-19T01:33:35.762Z,8.33
2018-12-19T01:36:04.119Z,8.13
2018-12-19T01:38:32.505Z,8.83
2018-12-19T01:41:00.963Z,8.23
2018-12-19T01:43:29.339Z,10.13
2018-12-19T01:45:57.716Z,10.47
2018-12-19T01:48:26.091Z,8.07
2018-12-19T01:50:54.485Z,8.23
2018-12-19T01:53:22.872Z,10.03
2018-12-19T01:55:51.546Z,9.20
2018-12-19T01:58:19.894Z,7.80
2018-12-19T02:00:48.267Z,9.13
2018-12-19T02:03:16.669Z,5.83
2018-12-19T02:05:45.151Z,7.77
2018-12-19T02:08:13.531Z,9.30
2018-12-19T02:10:41.899Z,6.60
2018-12-19T02:13:10.241Z,7.97
2018-12-19T02:15:38.618Z,7.70
2018-12-19T02:18:07.053Z,7.70
2018-12-19T02:20:35.449Z,7.03
2018-12-19T02:23:03.797Z,5.97
2018-12-19T02:25:32.131Z,7.67
2018-12-19T02:28:00.507Z,6.10
2018-12-19T02:30:28.870Z,6.13
2018-12-19T02:32:57.247Z,5.10
2018-12-19T02:35:26.317Z,6.20
2018-12-19T02:37:54.649Z,5.80
2018-12-19T02:40:23.042Z,6.00
2018-12-19T02:42:51.614Z,6.27
2018-12-19T02:45:20.017Z,4.70
2018-12-19T02:47:48.396Z,8.20
2018-12-19T02:50:16.776Z,5.33
2018-12-19T02:52:45.147Z,6.00
2018-12-19T02:55:13.520Z,6.00
2018-12-19T02:57:41.965Z,5.60
2018-12-19T03:00:10.423Z,4.30
2018-12-19T03:02:38.801Z,7.47
2018-12-19T03:05:07.431Z,5.97
2018-12-19T03:07:35.830Z,5.13
2018-12-19T03:10:04.199Z,5.60
2018-12-19T03:12:32.595Z,5.80
2018-12-19T03:15:00.944Z,6.13
2018-12-19T03:17:29.328Z,7.10
2018-12-19T03:19:57.682Z,4.60
2018-12-19T03:22:26.060Z,5.83
2018-12-19T03:24:54.407Z,6.70
2018-12-19T03:27:22.768Z,3.60
2018-12-19T03:29:51.164Z,5.93
2018-12-19T03:32:19.545Z,5.93
2018-12-19T03:34:47.930Z,6.07
2018-12-19T03:37:16.286Z,5.40
2018-12-19T03:39:50.215Z,3.87
2018-12-19T03:42:15.008Z,5.77
2018-12-19T03:44:43.487Z,3.93
2018-12-19T03:50:04.652Z,6.47
2018-12-19T03:52:33.117Z,4.47
2018-12-19T03:55:01.528Z,5.13
2018-12-19T03:57:30.084Z,5.77
2018-12-19T03:59:58.538Z,5.13
2018-12-19T04:02:26.904Z,5.03
2018-12-19T04:04:55.253Z,7.87
2018-12-19T04:07:23.638Z,7.23
2018-12-19T04:09:57.620Z,6.10
2018-12-19T04:12:22.429Z,6.47
2018-12-19T04:14:50.799Z,5.23
2018-12-19T04:17:19.311Z,5.90
2018-12-19T04:19:47.862Z,7.97
2018-12-19T04:22:16.225Z,7.13
2018-12-19T04:24:44.857Z,6.00
2018-12-19T04:27:13.240Z,6.30
2018-12-19T04:29:42.148Z,7.63
2018-12-19T04:32:10.702Z,5.30
2018-12-19T04:34:39.064Z,4.53
2018-12-19T04:37:07.442Z,4.10
2018-12-19T04:39:35.808Z,5.00
2018-12-19T04:42:04.405Z,6.83
2018-12-19T04:44:32.789Z,3.90
2018-12-19T04:47:01.173Z,6.47
2018-12-19T04:49:29.861Z,7.03
2018-12-19T04:52:04.833Z,6.80
2018-12-19T04:54:33.375Z,6.23
2018-12-19T04:57:01.862Z,5.23
2018-12-19T04:59:30.231Z,5.10
2018-12-19T05:01:58.620Z,6.40
2018-12-19T05:04:26.985Z,8.17
2018-12-19T05:06:55.381Z,10.23
2018-12-19T05:09:24.369Z,6.03
2018-12-19T05:11:52.820Z,6.60
2018-12-19T05:14:21.490Z,7.07
2018-12-19T05:16:49.848Z,7.23
2018-12-19T05:19:18.237Z,7.97
2018-12-19T05:21:46.633Z,4.70
2018-12-19T05:24:15.885Z,6.63
2018-12-19T05:26:44.598Z,7.80
2018-12-19T05:29:12.984Z,6.57
2018-12-19T05:31:41.425Z,8.63
2018-12-19T05:34:09.812Z,10.23
2018-12-19T05:36:38.318Z,15.07
2018-12-19T05:39:07.380Z,6.73
2018-12-19T05:41:36.602Z,6.50
2018-12-19T05:44:05.143Z,8.37
2018-12-19T05:46:33.536Z,8.10
2018-12-19T05:49:01.919Z,8.00
2018-12-19T05:51:30.313Z,8.90
2018-12-19T05:53:58.683Z,9.23
2018-12-19T05:56:27.105Z,8.67
2018-12-19T05:58:55.542Z,10.23
2018-12-19T06:01:23.972Z,12.30
2018-12-19T06:03:52.702Z,11.97
2018-12-19T06:06:21.099Z,10.73
2018-12-19T06:08:49.631Z,11.13
2018-12-19T06:11:18.043Z,9.00
2018-12-19T06:13:46.477Z,9.80
2018-12-19T06:16:14.890Z,11.30
2018-12-19T06:18:43.315Z,11.47
2018-12-19T06:21:11.734Z,10.30
2018-12-19T06:23:40.109Z,9.67
2018-12-19T06:26:08.497Z,10.27
2018-12-19T06:28:36.861Z,10.10
2018-12-19T06:31:05.230Z,9.60
2018-12-19T06:33:34.711Z,9.97
2018-12-19T06:36:03.211Z,13.63
2018-12-19T06:38:31.711Z,11.83
2018-12-19T06:41:00.103Z,12.60
2018-12-19T06:43:28.519Z,14.00
2018-12-19T06:45:58.365Z,13.70
2018-12-19T06:48:26.988Z,13.97
2018-12-19T06:50:55.397Z,13.47
2018-12-19T06:53:23.800Z,12.03
2018-12-19T06:55:52.187Z,13.87
2018-12-19T06:58:20.554Z,14.37
2018-12-19T07:00:48.939Z,14.33
2018-12-19T07:03:17.293Z,14.17
2018-12-19T07:05:45.695Z,13.03
2018-12-19T07:08:14.211Z,13.93
2018-12-19T07:10:42.589Z,14.73
2018-12-19T07:13:10.972Z,14.43
2018-12-19T07:15:39.349Z,18.10
2018-12-19T07:18:07.732Z,16.17
2018-12-19T07:20:36.090Z,15.00
2018-12-19T07:23:04.466Z,20.03
2018-12-19T07:25:32.844Z,17.77
2018-12-19T07:28:01.225Z,17.10
2018-12-19T07:30:29.652Z,14.93
2018-12-19T07:32:58.038Z,15.27
2018-12-19T07:35:26.411Z,17.40
2018-12-19T07:37:54.800Z,17.03
2018-12-19T07:40:23.180Z,26.17
2018-12-19T07:42:51.702Z,15.30
2018-12-19T07:45:20.086Z,19.13
2018-12-19T07:47:48.463Z,18.40
2018-12-19T07:50:16.985Z,16.43
2018-12-19T07:52:45.680Z,17.07
2018-12-19T07:55:14.082Z,16.63
2018-12-19T07:57:42.442Z,18.47
2018-12-19T08:00:11.023Z,20.43
2018-12-19T08:02:39.393Z,20.17
2018-12-19T08:05:07.753Z,18.93
2018-12-19T08:07:36.153Z,19.83
2018-12-19T08:10:05.237Z,17.27
2018-12-19T08:12:36.183Z,18.63
2018-12-19T08:15:04.239Z,19.60
2018-12-19T08:17:32.618Z,18.63
2018-12-19T08:20:01.008Z,18.07
2018-12-19T08:22:29.379Z,18.20
2018-12-19T08:24:57.806Z,16.93
2018-12-19T08:27:26.197Z,17.10
2018-12-19T08:29:54.570Z,16.97
2018-12-19T08:32:22.961Z,16.13
2018-12-19T08:34:51.327Z,17.67
2018-12-19T08:37:19.739Z,15.90
2018-12-19T08:39:48.135Z,18.80
2018-12-19T08:42:16.501Z,17.83
2018-12-19T08:44:45.080Z,18.17
2018-12-19T08:47:13.456Z,15.50
2018-12-19T08:49:42.200Z,16.30
2018-12-19T08:52:10.804Z,17.47
2018-12-19T08:54:39.281Z,15.43
2018-12-19T08:57:07.679Z,15.03
2018-12-19T08:59:36.092Z,12.60
2018-12-19T09:02:04.564Z,15.77
2018-12-19T09:04:32.926Z,17.13
2018-12-19T09:07:01.290Z,15.43
2018-12-19T09:09:29.671Z,19.97
2018-12-19T09:11:58.057Z,14.37
2018-12-19T09:14:26.466Z,16.23
2018-12-19T09:16:54.945Z,13.37
2018-12-19T09:19:23.319Z,13.77
2018-12-19T09:21:51.710Z,12.77
2018-12-19T09:24:20.129Z,13.47
2018-12-19T09:26:48.548Z,14.03
2018-12-19T09:29:16.971Z,13.07
2018-12-19T09:31:48.600Z,12.53
2018-12-19T09:34:17.155Z,15.67
2018-12-19T09:36:45.550Z,12.07
2018-12-19T09:39:13.922Z,13.90
2018-12-19T09:41:42.322Z,12.87
2018-12-19T09:44:11.428Z,14.93
2018-12-19T09:46:39.904Z,13.33
2018-12-19T09:49:12.405Z,12.40
2018-12-19T09:51:38.830Z,12.60
2018-12-19T09:54:07.188Z,14.57
2018-12-19T09:56:35.596Z,11.97
2018-12-19T09:59:04.093Z,14.80
2018-12-19T10:01:32.717Z,12.57
2018-12-19T10:04:01.147Z,10.90
2018-12-19T10:06:29.525Z,11.77
2018-12-19T10:08:57.937Z,10.73
2018-12-19T10:11:26.785Z,9.30
2018-12-19T10:13:55.229Z,9.10
2018-12-19T10:16:23.663Z,9.97
2018-12-19T10:18:52.109Z,12.63
2018-12-19T10:21:20.568Z,8.33
2018-12-19T10:23:49.185Z,13.53
2018-12-19T10:26:18.115Z,7.33
2018-12-19T10:28:46.488Z,8.87
2018-12-19T10:31:15.101Z,11.17
2018-12-19T10:33:43.475Z,9.43
2018-12-19T10:36:12.489Z,9.83
2018-12-19T10:38:40.886Z,7.27
2018-12-19T10:41:09.374Z,7.93
2018-12-19T10:43:37.771Z,7.83
2018-12-19T10:46:06.144Z,11.20
2018-12-19T10:48:34.520Z,6.83
2018-12-19T10:51:02.879Z,7.47
2018-12-19T10:53:31.238Z,7.20
2018-12-19T10:55:59.633Z,10.87
2018-12-19T10:58:28.030Z,8.07
2018-12-19T11:01:01.221Z,9.60
2018-12-19T11:03:29.600Z,6.20
2018-12-19T11:05:58.005Z,6.47
2018-12-19T11:08:26.400Z,8.00
2018-12-19T11:10:54.869Z,9.07
2018-12-19T11:13:23.256Z,7.13
2018-12-19T11:15:51.940Z,10.53
2018-12-19T11:18:26.456Z,6.23
2018-12-19T11:20:54.971Z,6.07
2018-12-19T11:23:23.402Z,8.50
2018-12-19T11:25:51.867Z,7.60
2018-12-19T11:28:20.329Z,8.60
2018-12-19T11:30:48.719Z,7.27
2018-12-19T11:33:17.127Z,10.57
2018-12-19T11:35:45.501Z,4.73
2018-12-19T11:38:13.963Z,8.30
2018-12-19T11:40:42.383Z,6.23
2018-12-19T11:43:10.761Z,9.30
2018-12-19T11:45:39.128Z,10.40
2018-12-19T11:48:07.486Z,8.63
2018-12-19T11:50:35.920Z,5.43
2018-12-19T11:53:04.319Z,7.30
2018-12-19T11:55:32.927Z,5.90
2018-12-19T11:58:01.302Z,7.53
2018-12-19T12:00:29.682Z,9.87
2018-12-19T12:02:58.092Z,5.03
2018-12-19T12:05:26.445Z,6.47
2018-12-19T12:07:54.968Z,7.93
2018-12-19T12:10:23.368Z,6.13
2018-12-19T12:12:51.722Z,8.77
2018-12-19T12:15:20.088Z,6.50
2018-12-19T12:17:48.482Z,6.37
2018-12-19T12:20:16.828Z,5.80
2018-12-19T12:22:45.207Z,7.70
2018-12-19T12:25:13.601Z,4.53
2018-12-19T12:27:41.985Z,8.20
2018-12-19T12:30:10.356Z,6.73
2018-12-19T12:32:38.730Z,6.00
2018-12-19T12:35:07.679Z,10.33
2018-12-19T12:37:36.081Z,5.10
2018-12-19T12:40:04.801Z,8.50
2018-12-19T12:42:33.243Z,7.23
2018-12-19T12:45:02.073Z,6.43
2018-12-19T12:47:30.472Z,6.23
2018-12-19T12:49:58.845Z,9.43
2018-12-19T12:52:27.258Z,5.10
2018-12-19T12:54:55.640Z,4.57
2018-12-19T12:57:24.014Z,7.47
2018-12-19T12:59:52.382Z,6.10
2018-12-19T13:02:21.126Z,10.00
2018-12-19T13:04:49.590Z,4.90
2018-12-19T13:07:18.039Z,7.87
2018-12-19T13:09:47.014Z,8.90
2018-12-19T13:12:15.448Z,6.73
2018-12-19T13:14:43.858Z,6.60
2018-12-19T13:17:12.412Z,8.40
2018-12-19T13:19:40.856Z,6.03
2018-12-19T13:22:09.248Z,6.37
2018-12-19T13:24:38.545Z,6.13
2018-12-19T13:27:07.017Z,11.63
2018-12-19T13:29:35.676Z,5.23
2018-12-19T13:32:04.170Z,7.37
2018-12-19T13:34:32.651Z,5.67
2018-12-19T13:37:01.048Z,10.37
2018-12-19T13:39:29.418Z,7.80
2018-12-19T13:41:57.808Z,6.97
2018-12-19T13:44:26.346Z,5.20
2018-12-19T13:46:54.878Z,4.10
2018-12-19T13:49:23.272Z,6.20
2018-12-19T13:51:51.624Z,7.50
2018-12-19T13:54:20.039Z,7.33
2018-12-19T13:56:48.447Z,5.33
2018-12-19T13:59:16.817Z,7.37
2018-12-19T14:01:45.211Z,11.83
2018-12-19T14:04:13.639Z,11.53
2018-12-19T14:06:42.305Z,7.53
2018-12-19T14:09:10.938Z,6.87
2018-12-19T14:11:39.315Z,5.97
2018-12-19T14:14:07.773Z,11.53
2018-12-19T14:16:36.149Z,6.23
2018-12-19T14:19:04.531Z,5.83
2018-12-19T14:21:33.016Z,8.43
2018-12-19T14:24:01.631Z,5.77
2018-12-19T14:29:23.555Z,6.33
2018-12-19T14:31:51.963Z,5.43
2018-12-19T14:34:20.367Z,5.63
2018-12-19T14:36:50.738Z,6.43
2018-12-19T14:39:22.917Z,6.60
2018-12-19T14:41:51.462Z,11.50
2018-12-19T14:47:16.282Z,5.00
2018-12-19T14:49:48.112Z,7.30
2018-12-19T14:55:15.554Z,7.60
2018-12-19T14:57:47.410Z,4.87
2018-12-19T15:09:16.546Z,4.77
2018-12-19T15:11:50.856Z,8.77
2018-12-19T15:17:24.200Z,7.93
2018-12-19T15:22:45.847Z,3.97
2018-12-19T15:25:22.521Z,5.77
2018-12-19T15:27:53.193Z,7.40
2018-12-19T15:30:24.763Z,6.17
2018-12-19T15:35:56.396Z,6.20
2018-12-19T15:38:27.765Z,9.43
2018-12-19T15:43:55.841Z,7.70
2018-12-19T15:46:29.972Z,5.17
2018-12-19T16:00:52.605Z,7.00
2018-12-19T16:03:33.677Z,9.97
2018-12-19T16:18:54.671Z,4.37
2018-12-19T16:21:39.267Z,6.47
2018-12-19T16:29:59.257Z,8.23
2018-12-19T16:32:41.782Z,6.67
2018-12-19T16:40:59.037Z,11.27
2018-12-19T16:43:45.889Z,6.33
2018-12-19T16:52:00.834Z,8.17
2018-12-19T16:54:47.348Z,11.13
2018-12-19T17:03:01.272Z,8.10
2018-12-19T17:05:49.360Z,6.27
2018-12-19T17:17:02.270Z,6.00
2018-12-19T17:31:04.197Z,6.27
2018-12-19T17:45:06.240Z,10.43
2018-12-19T17:53:20.442Z,8.17
2018-12-19T17:56:05.205Z,8.27
2018-12-19T17:58:34.132Z,9.70
2018-12-19T18:01:06.616Z,14.37
2018-12-19T18:06:27.688Z,6.77
2018-12-19T18:09:05.864Z,10.47
2018-12-19T18:23:06.239Z,7.03
2018-12-19T18:31:20.785Z,12.00
2018-12-19T18:33:49.701Z,10.30
2018-12-19T18:36:18.586Z,8.40
2018-12-19T18:39:05.409Z,8.17
2018-12-19T18:41:34.046Z,9.07
2018-12-19T18:44:08.807Z,9.27
2018-12-19T18:49:31.194Z,9.87
2018-12-19T18:52:06.519Z,7.67
2018-12-19T18:54:35.228Z,10.23
2018-12-19T18:57:09.720Z,8.90
2018-12-19T18:59:38.776Z,13.83
2018-12-19T19:02:07.869Z,9.40
2018-12-19T19:04:36.744Z,11.37
2018-12-19T19:07:09.230Z,11.97
2018-12-19T19:09:38.354Z,12.10
2018-12-19T19:12:08.613Z,12.27
2018-12-19T19:17:30.353Z,10.13
2018-12-19T19:19:59.247Z,5.23
2018-12-19T19:27:46.829Z,10.15
2018-12-19T19:30:15.681Z,11.60
2018-12-19T19:32:44.458Z,11.43
2018-12-19T19:35:14.167Z,12.00
2018-12-19T19:40:41.555Z,13.27
2018-12-19T19:43:10.608Z,11.57
2018-12-19T19:45:39.569Z,13.23
2018-12-19T19:48:08.354Z,11.00
2018-12-19T19:50:37.343Z,13.13
2018-12-19T19:53:06.552Z,14.63
2018-12-19T19:55:35.469Z,10.53
2018-12-19T19:58:04.115Z,11.43
2018-12-19T20:00:33.291Z,11.97
2018-12-19T20:03:03.322Z,10.50
2018-12-19T20:05:32.115Z,8.83
2018-12-19T20:08:01.011Z,8.47
2018-12-19T20:10:29.819Z,15.93
2018-12-19T20:12:58.687Z,13.27
2018-12-19T20:15:27.491Z,12.17
2018-12-19T20:17:56.559Z,14.70
2018-12-19T20:20:25.475Z,19.23
2018-12-19T20:22:54.221Z,10.87
2018-12-19T20:25:23.151Z,14.43
2018-12-19T20:27:52.012Z,8.87
2018-12-19T20:30:20.907Z,9.20
2018-12-19T20:32:50.030Z,13.20
2018-12-19T20:35:19.007Z,15.73
2018-12-19T20:37:47.821Z,15.13
2018-12-19T20:40:16.514Z,14.80
2018-12-19T20:42:45.467Z,14.47
2018-12-19T20:45:14.473Z,12.37
2018-12-19T20:47:43.011Z,13.97
2018-12-19T20:50:11.748Z,17.07
2018-12-19T20:52:40.757Z,14.87
2018-12-19T20:55:09.658Z,11.00
2018-12-19T20:57:38.523Z,15.13
2018-12-19T21:00:07.722Z,13.37
2018-12-19T21:02:36.633Z,12.30
2018-12-19T21:05:05.482Z,11.87
2018-12-19T21:16:13.156Z,13.87
2018-12-19T21:30:13.671Z,11.80
2018-12-19T21:32:42.428Z,13.00
2018-12-19T21:35:13.523Z,14.77
2018-12-19T21:49:13.686Z,13.73
2018-12-19T22:00:30.583Z,13.97
2018-12-19T22:03:12.531Z,10.33
2018-12-19T22:14:31.622Z,15.30
2018-12-19T22:17:17.825Z,19.10
2018-12-19T22:19:46.425Z,16.87
2018-12-19T22:22:15.047Z,17.70
2018-12-19T22:27:37.007Z,19.20
2018-12-19T22:30:15.540Z,17.23
2018-12-19T22:38:37.827Z,16.20
2018-12-19T22:41:14.080Z,17.27
2018-12-19T22:46:41.467Z,15.27
2018-12-19T22:49:15.555Z,9.73
2018-12-19T22:54:43.410Z,13.90
2018-12-19T22:57:15.894Z,18.37
2018-12-19T22:59:44.404Z,14.23
2018-12-19T23:02:22.256Z,14.13
2018-12-19T23:07:48.830Z,13.17
2018-12-19T23:10:17.258Z,13.37
2018-12-19T23:12:51.459Z,16.13
2018-12-19T23:18:32.057Z,12.70
2018-12-19T23:21:15.443Z,15.63
2018-12-19T23:26:36.756Z,10.97
2018-12-19T23:29:05.317Z,12.37
2018-12-19T23:37:20.262Z,14.73
2018-12-19T23:42:58.003Z,16.40
2018-12-19T23:51:18.038Z,17.80
2018-12-19T23:53:46.686Z,15.80
2018-12-19T23:56:18.408Z,16.00
